sensor_id;sensor_type;location;lat;lon;timestamp;P1;durP1;ratioP1;P2;durP2;ratioP2
15938;SDS011;8068;51.322;9.450;2023-03-01T00:01:19;7.47;;;6.87;;
15938;SDS011;8068;51.322;9.450;2023-03-01T00:03:52;6.93;;;6.27;;
15938;SDS011;8068;51.322;9.450;2023-03-01T00:06:24;7.00;;;6.50;;
15938;SDS011;8068;51.322;9.450;2023-03-01T00:08:55;6.23;;;5.83;;
15938;SDS011;8068;51.322;9.450;2023-03-01T00:11:27;7.53;;;6.93;;
15938;SDS011;8068;51.322;9.450;2023-03-01T00:14:00;8.03;;;7.33;;
15938;SDS011;8068;51.322;9.450;2023-03-01T00:16:39;11.30;;;7.27;;
15938;SDS011;8068;51.322;9.450;2023-03-01T00:19:12;9.33;;;7.57;;
15938;SDS011;8068;51.322;9.450;2023-03-01T00:21:45;15.93;;;7.17;;
15938;SDS011;8068;51.322;9.450;2023-03-01T00:24:16;7.30;;;6.57;;
15938;SDS011;8068;51.322;9.450;2023-03-01T00:26:52;10.23;;;7.27;;
15938;SDS011;8068;51.322;9.450;2023-03-01T00:29:25;7.03;;;6.30;;
15938;SDS011;8068;51.322;9.450;2023-03-01T00:31:55;7.90;;;7.17;;
15938;SDS011;8068;51.322;9.450;2023-03-01T00:34:30;6.50;;;6.00;;
15938;SDS011;8068;51.322;9.450;2023-03-01T00:37:01;7.57;;;6.97;;
15938;SDS011;8068;51.322;9.450;2023-03-01T00:39:35;7.83;;;7.07;;
15938;SDS011;8068;51.322;9.450;2023-03-01T00:42:10;7.10;;;6.50;;
15938;SDS011;8068;51.322;9.450;2023-03-01T00:44:41;7.00;;;6.60;;
15938;SDS011;8068;51.322;9.450;2023-03-01T00:47:11;17.73;;;6.87;;
15938;SDS011;8068;51.322;9.450;2023-03-01T00:49:42;6.90;;;6.40;;
15938;SDS011;8068;51.322;9.450;2023-03-01T00:52:12;7.83;;;6.90;;
15938;SDS011;8068;51.322;9.450;2023-03-01T00:54:43;7.27;;;6.57;;
15938;SDS011;8068;51.322;9.450;2023-03-01T00:57:13;6.40;;;5.90;;
15938;SDS011;8068;51.322;9.450;2023-03-01T00:59:48;6.10;;;5.80;;
15938;SDS011;8068;51.322;9.450;2023-03-01T01:02:19;6.20;;;5.70;;
15938;SDS011;8068;51.322;9.450;2023-03-01T01:04:50;6.33;;;5.83;;
15938;SDS011;8068;51.322;9.450;2023-03-01T01:07:22;5.90;;;5.50;;
15938;SDS011;8068;51.322;9.450;2023-03-01T01:09:53;5.90;;;5.60;;
15938;SDS011;8068;51.322;9.450;2023-03-01T01:12:24;6.17;;;5.77;;
15938;SDS011;8068;51.322;9.450;2023-03-01T01:14:54;7.43;;;5.57;;
15938;SDS011;8068;51.322;9.450;2023-03-01T01:17:25;6.77;;;6.37;;
15938;SDS011;8068;51.322;9.450;2023-03-01T01:19:55;7.43;;;6.60;;
15938;SDS011;8068;51.322;9.450;2023-03-01T01:22:26;7.70;;;6.37;;
15938;SDS011;8068;51.322;9.450;2023-03-01T01:25:02;6.37;;;5.77;;
15938;SDS011;8068;51.322;9.450;2023-03-01T01:27:33;7.50;;;6.00;;
15938;SDS011;8068;51.322;9.450;2023-03-01T01:30:04;6.17;;;5.80;;
15938;SDS011;8068;51.322;9.450;2023-03-01T01:32:35;7.10;;;6.40;;
15938;SDS011;8068;51.322;9.450;2023-03-01T01:35:06;6.30;;;5.80;;
15938;SDS011;8068;51.322;9.450;2023-03-01T01:37:37;7.33;;;6.63;;
15938;SDS011;8068;51.322;9.450;2023-03-01T01:40:08;7.77;;;7.03;;
15938;SDS011;8068;51.322;9.450;2023-03-01T01:42:40;7.70;;;7.00;;
15938;SDS011;8068;51.322;9.450;2023-03-01T01:48:12;7.13;;;6.40;;
15938;SDS011;8068;51.322;9.450;2023-03-01T01:50:46;7.53;;;6.83;;
15938;SDS011;8068;51.322;9.450;2023-03-01T01:53:27;6.40;;;5.97;;
15938;SDS011;8068;51.322;9.450;2023-03-01T01:55:59;7.10;;;6.50;;
15938;SDS011;8068;51.322;9.450;2023-03-01T01:58:31;6.60;;;6.10;;
15938;SDS011;8068;51.322;9.450;2023-03-01T02:01:11;6.67;;;6.17;;
15938;SDS011;8068;51.322;9.450;2023-03-01T02:03:43;6.87;;;6.20;;
15938;SDS011;8068;51.322;9.450;2023-03-01T02:08:49;5.70;;;5.30;;
15938;SDS011;8068;51.322;9.450;2023-03-01T02:11:21;6.83;;;6.23;;
15938;SDS011;8068;51.322;9.450;2023-03-01T02:16:46;5.40;;;5.00;;
15938;SDS011;8068;51.322;9.450;2023-03-01T02:19:43;6.20;;;5.70;;
15938;SDS011;8068;51.322;9.450;2023-03-01T02:22:28;5.80;;;5.40;;
15938;SDS011;8068;51.322;9.450;2023-03-01T02:25:12;6.07;;;5.67;;
15938;SDS011;8068;51.322;9.450;2023-03-01T02:27:54;6.77;;;6.17;;
15938;SDS011;8068;51.322;9.450;2023-03-01T02:30:27;5.80;;;5.37;;
15938;SDS011;8068;51.322;9.450;2023-03-01T02:32:59;6.63;;;6.10;;
15938;SDS011;8068;51.322;9.450;2023-03-01T02:35:37;6.43;;;6.03;;
15938;SDS011;8068;51.322;9.450;2023-03-01T02:38:08;6.53;;;5.87;;
15938;SDS011;8068;51.322;9.450;2023-03-01T02:40:39;6.30;;;5.80;;
15938;SDS011;8068;51.322;9.450;2023-03-01T02:43:11;6.83;;;6.13;;
15938;SDS011;8068;51.322;9.450;2023-03-01T02:45:43;6.90;;;6.30;;
15938;SDS011;8068;51.322;9.450;2023-03-01T02:48:19;7.70;;;6.57;;
15938;SDS011;8068;51.322;9.450;2023-03-01T02:50:57;6.50;;;5.90;;
15938;SDS011;8068;51.322;9.450;2023-03-01T02:56:18;6.63;;;6.13;;
15938;SDS011;8068;51.322;9.450;2023-03-01T02:58:49;6.40;;;5.90;;
15938;SDS011;8068;51.322;9.450;2023-03-01T03:01:21;7.10;;;6.50;;
15938;SDS011;8068;51.322;9.450;2023-03-01T03:03:52;6.53;;;5.90;;
15938;SDS011;8068;51.322;9.450;2023-03-01T03:06:23;8.57;;;6.60;;
15938;SDS011;8068;51.322;9.450;2023-03-01T03:08:53;6.63;;;6.03;;
15938;SDS011;8068;51.322;9.450;2023-03-01T03:11:24;8.57;;;6.40;;
15938;SDS011;8068;51.322;9.450;2023-03-01T03:13:58;6.90;;;6.40;;
15938;SDS011;8068;51.322;9.450;2023-03-01T03:16:29;7.20;;;6.60;;
15938;SDS011;8068;51.322;9.450;2023-03-01T03:19:01;13.03;;;6.70;;
15938;SDS011;8068;51.322;9.450;2023-03-01T03:21:38;6.63;;;6.03;;
15938;SDS011;8068;51.322;9.450;2023-03-01T03:24:09;6.87;;;6.03;;
15938;SDS011;8068;51.322;9.450;2023-03-01T03:26:40;7.20;;;6.60;;
15938;SDS011;8068;51.322;9.450;2023-03-01T03:29:16;11.93;;;6.07;;
15938;SDS011;8068;51.322;9.450;2023-03-01T03:31:46;6.33;;;5.77;;
15938;SDS011;8068;51.322;9.450;2023-03-01T03:34:17;6.57;;;6.07;;
15938;SDS011;8068;51.322;9.450;2023-03-01T03:36:48;6.90;;;5.90;;
15938;SDS011;8068;51.322;9.450;2023-03-01T03:39:20;9.50;;;6.07;;
15938;SDS011;8068;51.322;9.450;2023-03-01T03:41:50;11.90;;;6.10;;
15938;SDS011;8068;51.322;9.450;2023-03-01T03:44:22;5.93;;;5.63;;
15938;SDS011;8068;51.322;9.450;2023-03-01T03:46:55;5.87;;;5.37;;
15938;SDS011;8068;51.322;9.450;2023-03-01T03:49:26;6.50;;;5.97;;
15938;SDS011;8068;51.322;9.450;2023-03-01T03:51:56;6.00;;;5.60;;
15938;SDS011;8068;51.322;9.450;2023-03-01T03:54:32;6.40;;;5.90;;
15938;SDS011;8068;51.322;9.450;2023-03-01T03:57:04;5.83;;;5.53;;
15938;SDS011;8068;51.322;9.450;2023-03-01T03:59:35;7.00;;;6.37;;
15938;SDS011;8068;51.322;9.450;2023-03-01T04:02:06;7.13;;;6.40;;
15938;SDS011;8068;51.322;9.450;2023-03-01T04:04:39;5.90;;;5.50;;
15938;SDS011;8068;51.322;9.450;2023-03-01T04:07:11;6.37;;;5.90;;
15938;SDS011;8068;51.322;9.450;2023-03-01T04:09:42;6.80;;;6.20;;
15938;SDS011;8068;51.322;9.450;2023-03-01T04:12:14;6.40;;;6.00;;
15938;SDS011;8068;51.322;9.450;2023-03-01T04:14:51;6.17;;;5.87;;
15938;SDS011;8068;51.322;9.450;2023-03-01T04:17:22;6.50;;;5.80;;
15938;SDS011;8068;51.322;9.450;2023-03-01T04:19:55;6.40;;;5.90;;
15938;SDS011;8068;51.322;9.450;2023-03-01T04:22:25;6.63;;;6.07;;
15938;SDS011;8068;51.322;9.450;2023-03-01T04:25:00;8.47;;;6.00;;
15938;SDS011;8068;51.322;9.450;2023-03-01T04:27:36;7.03;;;5.67;;
15938;SDS011;8068;51.322;9.450;2023-03-01T04:30:07;6.17;;;5.70;;
15938;SDS011;8068;51.322;9.450;2023-03-01T04:32:38;6.47;;;5.97;;
15938;SDS011;8068;51.322;9.450;2023-03-01T04:35:13;6.27;;;5.67;;
15938;SDS011;8068;51.322;9.450;2023-03-01T04:37:44;6.33;;;5.67;;
15938;SDS011;8068;51.322;9.450;2023-03-01T04:40:15;6.50;;;5.90;;
15938;SDS011;8068;51.322;9.450;2023-03-01T04:42:47;5.67;;;5.37;;
15938;SDS011;8068;51.322;9.450;2023-03-01T04:45:17;5.77;;;5.47;;
15938;SDS011;8068;51.322;9.450;2023-03-01T04:47:48;5.67;;;5.17;;
15938;SDS011;8068;51.322;9.450;2023-03-01T04:50:19;6.03;;;5.53;;
15938;SDS011;8068;51.322;9.450;2023-03-01T04:52:52;6.83;;;5.57;;
15938;SDS011;8068;51.322;9.450;2023-03-01T04:55:23;6.83;;;5.67;;
15938;SDS011;8068;51.322;9.450;2023-03-01T04:57:55;6.40;;;5.90;;
15938;SDS011;8068;51.322;9.450;2023-03-01T05:00:31;6.13;;;5.60;;
15938;SDS011;8068;51.322;9.450;2023-03-01T05:03:02;6.17;;;5.77;;
15938;SDS011;8068;51.322;9.450;2023-03-01T05:05:34;5.60;;;5.10;;
15938;SDS011;8068;51.322;9.450;2023-03-01T05:08:11;6.77;;;6.17;;
15938;SDS011;8068;51.322;9.450;2023-03-01T05:10:51;6.97;;;6.37;;
15938;SDS011;8068;51.322;9.450;2023-03-01T05:13:23;5.80;;;5.50;;
15938;SDS011;8068;51.322;9.450;2023-03-01T05:15:56;8.00;;;6.57;;
15938;SDS011;8068;51.322;9.450;2023-03-01T05:18:30;7.13;;;6.03;;
15938;SDS011;8068;51.322;9.450;2023-03-01T05:21:03;6.60;;;5.90;;
15938;SDS011;8068;51.322;9.450;2023-03-01T05:23:38;8.90;;;7.50;;
15938;SDS011;8068;51.322;9.450;2023-03-01T05:26:10;10.63;;;7.00;;
15938;SDS011;8068;51.322;9.450;2023-03-01T05:29:07;6.90;;;6.37;;
15938;SDS011;8068;51.322;9.450;2023-03-01T05:31:40;9.60;;;6.50;;
15938;SDS011;8068;51.322;9.450;2023-03-01T05:34:11;13.60;;;6.67;;
15938;SDS011;8068;51.322;9.450;2023-03-01T05:36:47;9.97;;;5.73;;
15938;SDS011;8068;51.322;9.450;2023-03-01T05:39:18;7.20;;;6.60;;
15938;SDS011;8068;51.322;9.450;2023-03-01T05:41:55;7.00;;;6.50;;
15938;SDS011;8068;51.322;9.450;2023-03-01T05:44:31;7.10;;;6.10;;
15938;SDS011;8068;51.322;9.450;2023-03-01T05:47:01;7.33;;;6.80;;
15938;SDS011;8068;51.322;9.450;2023-03-01T05:49:32;7.20;;;6.60;;
15938;SDS011;8068;51.322;9.450;2023-03-01T05:52:02;6.93;;;6.40;;
15938;SDS011;8068;51.322;9.450;2023-03-01T05:54:33;7.37;;;6.77;;
15938;SDS011;8068;51.322;9.450;2023-03-01T05:57:04;9.60;;;7.03;;
15938;SDS011;8068;51.322;9.450;2023-03-01T05:59:35;7.23;;;6.63;;
15938;SDS011;8068;51.322;9.450;2023-03-01T06:02:10;6.87;;;6.37;;
15938;SDS011;8068;51.322;9.450;2023-03-01T06:04:41;7.13;;;6.10;;
15938;SDS011;8068;51.322;9.450;2023-03-01T06:07:12;7.93;;;7.10;;
15938;SDS011;8068;51.322;9.450;2023-03-01T06:09:48;7.43;;;6.90;;
15938;SDS011;8068;51.322;9.450;2023-03-01T06:12:18;7.93;;;7.27;;
15938;SDS011;8068;51.322;9.450;2023-03-01T06:14:49;6.90;;;6.30;;
15938;SDS011;8068;51.322;9.450;2023-03-01T06:17:20;6.97;;;6.40;;
15938;SDS011;8068;51.322;9.450;2023-03-01T06:19:51;9.40;;;6.37;;
15938;SDS011;8068;51.322;9.450;2023-03-01T06:22:22;8.60;;;6.67;;
15938;SDS011;8068;51.322;9.450;2023-03-01T06:24:53;7.60;;;7.00;;
15938;SDS011;8068;51.322;9.450;2023-03-01T06:27:28;8.73;;;6.63;;
15938;SDS011;8068;51.322;9.450;2023-03-01T06:29:59;7.40;;;6.70;;
15938;SDS011;8068;51.322;9.450;2023-03-01T06:32:30;7.03;;;6.53;;
15938;SDS011;8068;51.322;9.450;2023-03-01T06:35:06;7.50;;;6.20;;
15938;SDS011;8068;51.322;9.450;2023-03-01T06:37:38;12.17;;;6.70;;
15938;SDS011;8068;51.322;9.450;2023-03-01T06:40:09;8.73;;;7.20;;
15938;SDS011;8068;51.322;9.450;2023-03-01T06:42:49;7.40;;;6.67;;
15938;SDS011;8068;51.322;9.450;2023-03-01T06:45:21;9.77;;;6.67;;
15938;SDS011;8068;51.322;9.450;2023-03-01T06:47:51;8.80;;;7.90;;
15938;SDS011;8068;51.322;9.450;2023-03-01T06:50:22;10.03;;;7.70;;
15938;SDS011;8068;51.322;9.450;2023-03-01T06:52:56;8.37;;;7.53;;
15938;SDS011;8068;51.322;9.450;2023-03-01T06:55:27;9.43;;;7.00;;
15938;SDS011;8068;51.322;9.450;2023-03-01T06:57:58;8.73;;;7.00;;
15938;SDS011;8068;51.322;9.450;2023-03-01T07:00:30;8.83;;;6.80;;
15938;SDS011;8068;51.322;9.450;2023-03-01T07:03:01;13.67;;;6.37;;
15938;SDS011;8068;51.322;9.450;2023-03-01T07:05:33;7.00;;;6.50;;
15938;SDS011;8068;51.322;9.450;2023-03-01T07:08:09;8.03;;;6.73;;
15938;SDS011;8068;51.322;9.450;2023-03-01T07:10:39;7.10;;;6.57;;
15938;SDS011;8068;51.322;9.450;2023-03-01T07:13:10;7.43;;;6.80;;
15938;SDS011;8068;51.322;9.450;2023-03-01T07:15:41;6.97;;;6.40;;
15938;SDS011;8068;51.322;9.450;2023-03-01T07:18:12;8.60;;;7.30;;
15938;SDS011;8068;51.322;9.450;2023-03-01T07:20:42;9.50;;;6.53;;
15938;SDS011;8068;51.322;9.450;2023-03-01T07:23:13;7.00;;;6.30;;
15938;SDS011;8068;51.322;9.450;2023-03-01T07:25:56;8.60;;;6.80;;
15938;SDS011;8068;51.322;9.450;2023-03-01T07:28:27;6.80;;;6.20;;
15938;SDS011;8068;51.322;9.450;2023-03-01T07:31:02;8.73;;;6.27;;
15938;SDS011;8068;51.322;9.450;2023-03-01T07:33:33;5.87;;;5.40;;
15938;SDS011;8068;51.322;9.450;2023-03-01T07:36:04;6.70;;;6.20;;
15938;SDS011;8068;51.322;9.450;2023-03-01T07:38:35;6.40;;;5.80;;
15938;SDS011;8068;51.322;9.450;2023-03-01T07:41:08;6.03;;;5.60;;
15938;SDS011;8068;51.322;9.450;2023-03-01T07:43:39;7.13;;;6.43;;
15938;SDS011;8068;51.322;9.450;2023-03-01T07:46:09;5.57;;;5.20;;
15938;SDS011;8068;51.322;9.450;2023-03-01T07:48:40;6.03;;;5.53;;
15938;SDS011;8068;51.322;9.450;2023-03-01T07:51:11;6.03;;;5.63;;
15938;SDS011;8068;51.322;9.450;2023-03-01T07:53:42;6.63;;;6.03;;
15938;SDS011;8068;51.322;9.450;2023-03-01T07:56:13;8.33;;;6.37;;
15938;SDS011;8068;51.322;9.450;2023-03-01T07:58:45;6.87;;;5.57;;
15938;SDS011;8068;51.322;9.450;2023-03-01T08:01:18;8.77;;;5.33;;
15938;SDS011;8068;51.322;9.450;2023-03-01T08:03:50;5.30;;;4.97;;
15938;SDS011;8068;51.322;9.450;2023-03-01T08:06:25;4.93;;;4.53;;
15938;SDS011;8068;51.322;9.450;2023-03-01T08:08:56;5.93;;;5.43;;
15938;SDS011;8068;51.322;9.450;2023-03-01T08:11:26;5.97;;;5.50;;
15938;SDS011;8068;51.322;9.450;2023-03-01T08:13:59;5.40;;;5.07;;
15938;SDS011;8068;51.322;9.450;2023-03-01T08:16:30;5.70;;;5.30;;
15938;SDS011;8068;51.322;9.450;2023-03-01T08:19:05;6.40;;;5.77;;
15938;SDS011;8068;51.322;9.450;2023-03-01T08:21:37;5.77;;;5.37;;
15938;SDS011;8068;51.322;9.450;2023-03-01T08:24:08;6.10;;;5.50;;
15938;SDS011;8068;51.322;9.450;2023-03-01T08:26:40;6.40;;;5.77;;
15938;SDS011;8068;51.322;9.450;2023-03-01T08:29:11;8.37;;;6.23;;
15938;SDS011;8068;51.322;9.450;2023-03-01T08:31:45;6.27;;;5.67;;
15938;SDS011;8068;51.322;9.450;2023-03-01T08:34:16;7.83;;;5.60;;
15938;SDS011;8068;51.322;9.450;2023-03-01T08:36:47;11.87;;;6.20;;
15938;SDS011;8068;51.322;9.450;2023-03-01T08:39:23;5.80;;;5.30;;
15938;SDS011;8068;51.322;9.450;2023-03-01T08:41:53;5.93;;;5.57;;
15938;SDS011;8068;51.322;9.450;2023-03-01T08:44:24;9.33;;;5.80;;
15938;SDS011;8068;51.322;9.450;2023-03-01T08:46:55;5.23;;;4.93;;
15938;SDS011;8068;51.322;9.450;2023-03-01T08:49:28;8.13;;;6.53;;
15938;SDS011;8068;51.322;9.450;2023-03-01T08:51:58;6.37;;;5.67;;
15938;SDS011;8068;51.322;9.450;2023-03-01T08:54:29;5.37;;;4.87;;
15938;SDS011;8068;51.322;9.450;2023-03-01T08:57:02;5.30;;;4.90;;
15938;SDS011;8068;51.322;9.450;2023-03-01T08:59:33;5.83;;;5.40;;
15938;SDS011;8068;51.322;9.450;2023-03-01T09:02:15;5.90;;;5.50;;
15938;SDS011;8068;51.322;9.450;2023-03-01T09:04:47;5.03;;;4.60;;
15938;SDS011;8068;51.322;9.450;2023-03-01T09:07:18;6.07;;;5.67;;
15938;SDS011;8068;51.322;9.450;2023-03-01T09:09:49;8.93;;;6.23;;
15938;SDS011;8068;51.322;9.450;2023-03-01T09:12:24;5.83;;;5.33;;
15938;SDS011;8068;51.322;9.450;2023-03-01T09:14:55;6.80;;;6.17;;
15938;SDS011;8068;51.322;9.450;2023-03-01T09:17:26;5.33;;;4.90;;
15938;SDS011;8068;51.322;9.450;2023-03-01T09:19:57;10.27;;;5.73;;
15938;SDS011;8068;51.322;9.450;2023-03-01T09:22:30;8.03;;;5.03;;
15938;SDS011;8068;51.322;9.450;2023-03-01T09:25:01;6.97;;;6.40;;
15938;SDS011;8068;51.322;9.450;2023-03-01T09:27:31;7.07;;;5.63;;
15938;SDS011;8068;51.322;9.450;2023-03-01T09:30:04;9.23;;;5.90;;
15938;SDS011;8068;51.322;9.450;2023-03-01T09:32:36;5.53;;;5.13;;
15938;SDS011;8068;51.322;9.450;2023-03-01T09:35:07;6.13;;;5.53;;
15938;SDS011;8068;51.322;9.450;2023-03-01T09:37:43;7.90;;;6.17;;
15938;SDS011;8068;51.322;9.450;2023-03-01T09:40:24;9.53;;;5.70;;
15938;SDS011;8068;51.322;9.450;2023-03-01T09:43:02;6.63;;;6.03;;
15938;SDS011;8068;51.322;9.450;2023-03-01T09:45:43;5.73;;;5.33;;
15938;SDS011;8068;51.322;9.450;2023-03-01T09:48:16;6.43;;;5.90;;
15938;SDS011;8068;51.322;9.450;2023-03-01T09:50:53;7.70;;;6.27;;
15938;SDS011;8068;51.322;9.450;2023-03-01T09:53:27;9.23;;;5.73;;
15938;SDS011;8068;51.322;9.450;2023-03-01T09:56:10;6.30;;;5.80;;
15938;SDS011;8068;51.322;9.450;2023-03-01T09:58:59;6.60;;;6.00;;
15938;SDS011;8068;51.322;9.450;2023-03-01T10:09:40;7.27;;;5.97;;
15938;SDS011;8068;51.322;9.450;2023-03-01T10:12:14;6.23;;;5.73;;
15938;SDS011;8068;51.322;9.450;2023-03-01T10:14:55;6.20;;;5.70;;
15938;SDS011;8068;51.322;9.450;2023-03-01T10:17:32;7.27;;;5.90;;
15938;SDS011;8068;51.322;9.450;2023-03-01T10:20:25;6.07;;;5.63;;
15938;SDS011;8068;51.322;9.450;2023-03-01T10:23:17;6.07;;;5.37;;
15938;SDS011;8068;51.322;9.450;2023-03-01T10:31:15;6.30;;;5.80;;
15938;SDS011;8068;51.322;9.450;2023-03-01T10:33:50;6.33;;;5.77;;
15938;SDS011;8068;51.322;9.450;2023-03-01T10:36:25;6.90;;;6.40;;
15938;SDS011;8068;51.322;9.450;2023-03-01T10:38:56;7.83;;;6.47;;
15938;SDS011;8068;51.322;9.450;2023-03-01T10:41:31;9.07;;;5.63;;
15938;SDS011;8068;51.322;9.450;2023-03-01T10:44:02;6.80;;;6.20;;
15938;SDS011;8068;51.322;9.450;2023-03-01T10:46:34;8.43;;;5.80;;
15938;SDS011;8068;51.322;9.450;2023-03-01T10:49:14;6.63;;;6.00;;
15938;SDS011;8068;51.322;9.450;2023-03-01T10:51:46;8.17;;;5.80;;
15938;SDS011;8068;51.322;9.450;2023-03-01T10:54:26;15.33;;;6.80;;
15938;SDS011;8068;51.322;9.450;2023-03-01T10:56:59;7.33;;;6.40;;
15938;SDS011;8068;51.322;9.450;2023-03-01T10:59:33;7.13;;;6.53;;
15938;SDS011;8068;51.322;9.450;2023-03-01T11:04:58;7.43;;;6.47;;
15938;SDS011;8068;51.322;9.450;2023-03-01T11:07:31;7.37;;;6.13;;
15938;SDS011;8068;51.322;9.450;2023-03-01T11:10:21;7.30;;;6.70;;
15938;SDS011;8068;51.322;9.450;2023-03-01T11:13:05;8.63;;;7.10;;
15938;SDS011;8068;51.322;9.450;2023-03-01T11:15:59;6.70;;;6.10;;
15938;SDS011;8068;51.322;9.450;2023-03-01T11:18:33;8.40;;;6.80;;
15938;SDS011;8068;51.322;9.450;2023-03-01T11:21:14;7.53;;;6.17;;
15938;SDS011;8068;51.322;9.450;2023-03-01T11:23:41;7.80;;;6.90;;
15938;SDS011;8068;51.322;9.450;2023-03-01T11:26:08;11.00;;;6.80;;
15938;SDS011;8068;51.322;9.450;2023-03-01T11:28:37;8.03;;;7.33;;
15938;SDS011;8068;51.322;9.450;2023-03-01T11:31:07;8.43;;;6.50;;
15938;SDS011;8068;51.322;9.450;2023-03-01T11:41:48;7.20;;;6.50;;
15938;SDS011;8068;51.322;9.450;2023-03-01T11:44:16;8.83;;;7.13;;
15938;SDS011;8068;51.322;9.450;2023-03-01T11:52:23;10.43;;;7.47;;
15938;SDS011;8068;51.322;9.450;2023-03-01T12:08:38;7.80;;;7.00;;
15938;SDS011;8068;51.322;9.450;2023-03-01T12:22:31;10.83;;;7.30;;
15938;SDS011;8068;51.322;9.450;2023-03-01T12:25:11;8.10;;;7.30;;
15938;SDS011;8068;51.322;9.450;2023-03-01T12:33:02;11.77;;;7.93;;
15938;SDS011;8068;51.322;9.450;2023-03-01T12:35:53;7.00;;;6.23;;
15938;SDS011;8068;51.322;9.450;2023-03-01T12:38:33;7.70;;;7.00;;
15938;SDS011;8068;51.322;9.450;2023-03-01T12:44:00;8.90;;;6.97;;
15938;SDS011;8068;51.322;9.450;2023-03-01T12:46:46;8.10;;;6.50;;
15938;SDS011;8068;51.322;9.450;2023-03-01T12:52:41;7.20;;;6.70;;
15938;SDS011;8068;51.322;9.450;2023-03-01T12:55:42;8.20;;;6.87;;
15938;SDS011;8068;51.322;9.450;2023-03-01T12:58:21;7.53;;;6.73;;
15938;SDS011;8068;51.322;9.450;2023-03-01T13:03:38;10.77;;;5.90;;
15938;SDS011;8068;51.322;9.450;2023-03-01T13:11:47;6.10;;;5.60;;
15938;SDS011;8068;51.322;9.450;2023-03-01T13:16:49;6.50;;;5.90;;
15938;SDS011;8068;51.322;9.450;2023-03-01T13:19:23;6.27;;;5.60;;
15938;SDS011;8068;51.322;9.450;2023-03-01T13:21:51;6.67;;;6.07;;
15938;SDS011;8068;51.322;9.450;2023-03-01T13:24:40;5.83;;;5.53;;
15938;SDS011;8068;51.322;9.450;2023-03-01T13:29:47;7.93;;;6.20;;
15938;SDS011;8068;51.322;9.450;2023-03-01T13:32:27;6.17;;;5.67;;
15938;SDS011;8068;51.322;9.450;2023-03-01T13:37:40;9.60;;;5.53;;
15938;SDS011;8068;51.322;9.450;2023-03-01T13:42:47;6.23;;;5.73;;
15938;SDS011;8068;51.322;9.450;2023-03-01T13:45:36;5.63;;;5.13;;
15938;SDS011;8068;51.322;9.450;2023-03-01T13:48:15;8.00;;;4.80;;
15938;SDS011;8068;51.322;9.450;2023-03-01T13:50:50;4.97;;;4.57;;
15938;SDS011;8068;51.322;9.450;2023-03-01T13:53:19;6.73;;;4.60;;
15938;SDS011;8068;51.322;9.450;2023-03-01T13:55:48;6.07;;;4.93;;
15938;SDS011;8068;51.322;9.450;2023-03-01T13:58:30;5.13;;;4.10;;
15938;SDS011;8068;51.322;9.450;2023-03-01T14:03:29;5.33;;;4.93;;
15938;SDS011;8068;51.322;9.450;2023-03-01T14:08:40;7.80;;;4.70;;
15938;SDS011;8068;51.322;9.450;2023-03-01T14:19:18;4.93;;;4.53;;
15938;SDS011;8068;51.322;9.450;2023-03-01T14:24:47;5.70;;;4.20;;
15938;SDS011;8068;51.322;9.450;2023-03-01T14:27:15;5.97;;;5.47;;
15938;SDS011;8068;51.322;9.450;2023-03-01T14:29:42;6.73;;;5.43;;
15938;SDS011;8068;51.322;9.450;2023-03-01T14:32:10;7.70;;;5.20;;
15938;SDS011;8068;51.322;9.450;2023-03-01T14:34:43;5.10;;;4.80;;
15938;SDS011;8068;51.322;9.450;2023-03-01T14:37:16;5.70;;;5.20;;
15938;SDS011;8068;51.322;9.450;2023-03-01T14:39:45;5.40;;;4.93;;
15938;SDS011;8068;51.322;9.450;2023-03-01T14:42:11;4.70;;;4.33;;
15938;SDS011;8068;51.322;9.450;2023-03-01T14:44:45;4.67;;;4.27;;
15938;SDS011;8068;51.322;9.450;2023-03-01T14:47:14;6.30;;;5.33;;
15938;SDS011;8068;51.322;9.450;2023-03-01T14:49:42;7.60;;;5.20;;
15938;SDS011;8068;51.322;9.450;2023-03-01T14:52:21;5.70;;;5.20;;
15938;SDS011;8068;51.322;9.450;2023-03-01T14:54:50;6.20;;;5.00;;
15938;SDS011;8068;51.322;9.450;2023-03-01T14:57:22;4.83;;;4.30;;
15938;SDS011;8068;51.322;9.450;2023-03-01T14:59:57;7.00;;;5.03;;
15938;SDS011;8068;51.322;9.450;2023-03-01T15:02:26;8.03;;;5.43;;
15938;SDS011;8068;51.322;9.450;2023-03-01T15:04:56;7.67;;;5.50;;
15938;SDS011;8068;51.322;9.450;2023-03-01T15:07:27;5.70;;;5.07;;
15938;SDS011;8068;51.322;9.450;2023-03-01T15:09:59;5.40;;;5.00;;
15938;SDS011;8068;51.322;9.450;2023-03-01T15:14:55;6.70;;;5.40;;
15938;SDS011;8068;51.322;9.450;2023-03-01T15:20:00;6.00;;;5.20;;
15938;SDS011;8068;51.322;9.450;2023-03-01T15:22:28;9.87;;;5.10;;
15938;SDS011;8068;51.322;9.450;2023-03-01T15:24:54;5.20;;;4.80;;
15938;SDS011;8068;51.322;9.450;2023-03-01T15:27:22;7.47;;;5.20;;
15938;SDS011;8068;51.322;9.450;2023-03-01T15:29:59;5.73;;;4.90;;
15938;SDS011;8068;51.322;9.450;2023-03-01T15:32:29;5.57;;;5.17;;
15938;SDS011;8068;51.322;9.450;2023-03-01T15:35:00;6.13;;;5.43;;
15938;SDS011;8068;51.322;9.450;2023-03-01T15:37:47;5.00;;;4.60;;
15938;SDS011;8068;51.322;9.450;2023-03-01T15:40:19;10.73;;;5.87;;
15938;SDS011;8068;51.322;9.450;2023-03-01T15:42:58;6.20;;;5.60;;
15938;SDS011;8068;51.322;9.450;2023-03-01T15:45:29;5.60;;;5.10;;
15938;SDS011;8068;51.322;9.450;2023-03-01T15:47:57;5.27;;;4.77;;
15938;SDS011;8068;51.322;9.450;2023-03-01T15:50:28;5.10;;;4.60;;
15938;SDS011;8068;51.322;9.450;2023-03-01T15:52:56;4.70;;;4.50;;
15938;SDS011;8068;51.322;9.450;2023-03-01T15:55:24;5.07;;;4.77;;
15938;SDS011;8068;51.322;9.450;2023-03-01T16:00:26;5.30;;;4.43;;
15938;SDS011;8068;51.322;9.450;2023-03-01T16:02:52;5.60;;;5.13;;
15938;SDS011;8068;51.322;9.450;2023-03-01T16:05:26;5.37;;;4.97;;
15938;SDS011;8068;51.322;9.450;2023-03-01T16:07:53;5.67;;;5.27;;
15938;SDS011;8068;51.322;9.450;2023-03-01T16:10:20;5.23;;;4.87;;
15938;SDS011;8068;51.322;9.450;2023-03-01T16:12:46;5.70;;;5.00;;
15938;SDS011;8068;51.322;9.450;2023-03-01T16:15:27;5.30;;;4.93;;
15938;SDS011;8068;51.322;9.450;2023-03-01T16:17:58;5.50;;;4.80;;
15938;SDS011;8068;51.322;9.450;2023-03-01T16:20:25;7.40;;;5.03;;
15938;SDS011;8068;51.322;9.450;2023-03-01T16:22:58;4.87;;;4.47;;
15938;SDS011;8068;51.322;9.450;2023-03-01T16:25:26;5.13;;;4.73;;
15938;SDS011;8068;51.322;9.450;2023-03-01T16:27:52;5.67;;;4.93;;
15938;SDS011;8068;51.322;9.450;2023-03-01T16:30:19;4.50;;;4.10;;
15938;SDS011;8068;51.322;9.450;2023-03-01T16:32:47;6.60;;;5.13;;
15938;SDS011;8068;51.322;9.450;2023-03-01T16:35:16;7.00;;;5.00;;
15938;SDS011;8068;51.322;9.450;2023-03-01T16:37:45;7.27;;;5.33;;
15938;SDS011;8068;51.322;9.450;2023-03-01T16:40:24;5.47;;;4.97;;
15938;SDS011;8068;51.322;9.450;2023-03-01T16:42:52;7.67;;;4.73;;
15938;SDS011;8068;51.322;9.450;2023-03-01T16:45:19;5.23;;;4.73;;
15938;SDS011;8068;51.322;9.450;2023-03-01T16:47:51;6.20;;;4.83;;
15938;SDS011;8068;51.322;9.450;2023-03-01T16:50:21;5.37;;;4.93;;
15938;SDS011;8068;51.322;9.450;2023-03-01T16:52:47;4.70;;;4.50;;
15938;SDS011;8068;51.322;9.450;2023-03-01T16:55:14;6.83;;;4.87;;
15938;SDS011;8068;51.322;9.450;2023-03-01T16:57:40;8.07;;;5.30;;
15938;SDS011;8068;51.322;9.450;2023-03-01T17:00:06;6.00;;;5.50;;
15938;SDS011;8068;51.322;9.450;2023-03-01T17:02:36;6.40;;;5.80;;
15938;SDS011;8068;51.322;9.450;2023-03-01T17:05:03;5.50;;;5.03;;
15938;SDS011;8068;51.322;9.450;2023-03-01T17:07:30;5.80;;;5.37;;
15938;SDS011;8068;51.322;9.450;2023-03-01T17:09:59;10.37;;;6.20;;
15938;SDS011;8068;51.322;9.450;2023-03-01T17:12:28;7.10;;;5.77;;
15938;SDS011;8068;51.322;9.450;2023-03-01T17:14:54;7.90;;;5.60;;
15938;SDS011;8068;51.322;9.450;2023-03-01T17:17:21;8.23;;;6.10;;
15938;SDS011;8068;51.322;9.450;2023-03-01T17:19:47;5.93;;;5.20;;
15938;SDS011;8068;51.322;9.450;2023-03-01T17:22:13;6.50;;;4.60;;
15938;SDS011;8068;51.322;9.450;2023-03-01T17:24:40;6.80;;;5.37;;
15938;SDS011;8068;51.322;9.450;2023-03-01T17:27:07;5.07;;;4.70;;
15938;SDS011;8068;51.322;9.450;2023-03-01T17:29:34;5.93;;;5.20;;
15938;SDS011;8068;51.322;9.450;2023-03-01T17:32:00;6.07;;;4.70;;
15938;SDS011;8068;51.322;9.450;2023-03-01T17:34:27;14.57;;;5.37;;